sensor_id;sensor_type;location;lat;lon;timestamp;P1;durP1;ratioP1;P2;durP2;ratioP2
51566;SDS011;37657;53.182;5.638;2023-02-15T00:01:06;330.17;;;41.03;;
51566;SDS011;37657;53.182;5.638;2023-02-15T00:03:32;368.95;;;40.20;;
51566;SDS011;37657;53.182;5.638;2023-02-15T00:05:58;334.52;;;40.22;;
51566;SDS011;37657;53.182;5.638;2023-02-15T00:08:24;298.83;;;40.53;;
51566;SDS011;37657;53.182;5.638;2023-02-15T00:10:49;356.30;;;43.58;;
51566;SDS011;37657;53.182;5.638;2023-02-15T00:13:15;181.25;;;31.40;;
51566;SDS011;37657;53.182;5.638;2023-02-15T00:15:40;254.77;;;37.20;;
51566;SDS011;37657;53.182;5.638;2023-02-15T00:18:06;234.10;;;32.83;;
51566;SDS011;37657;53.182;5.638;2023-02-15T00:20:31;236.00;;;31.42;;
51566;SDS011;37657;53.182;5.638;2023-02-15T00:22:58;256.95;;;33.10;;
51566;SDS011;37657;53.182;5.638;2023-02-15T00:25:23;455.33;;;47.70;;
51566;SDS011;37657;53.182;5.638;2023-02-15T00:27:49;449.45;;;48.33;;
51566;SDS011;37657;53.182;5.638;2023-02-15T00:30:15;581.70;;;62.50;;
51566;SDS011;37657;53.182;5.638;2023-02-15T00:32:41;435.17;;;52.53;;
51566;SDS011;37657;53.182;5.638;2023-02-15T00:35:07;589.03;;;65.85;;
51566;SDS011;37657;53.182;5.638;2023-02-15T00:37:34;448.77;;;54.95;;
51566;SDS011;37657;53.182;5.638;2023-02-15T00:40:00;477.10;;;52.22;;
51566;SDS011;37657;53.182;5.638;2023-02-15T00:42:26;331.55;;;47.85;;
51566;SDS011;37657;53.182;5.638;2023-02-15T00:44:52;510.90;;;56.30;;
51566;SDS011;37657;53.182;5.638;2023-02-15T00:47:17;381.80;;;43.72;;
51566;SDS011;37657;53.182;5.638;2023-02-15T00:49:43;526.58;;;57.90;;
51566;SDS011;37657;53.182;5.638;2023-02-15T00:52:08;561.85;;;62.08;;
51566;SDS011;37657;53.182;5.638;2023-02-15T00:54:34;591.97;;;66.50;;
51566;SDS011;37657;53.182;5.638;2023-02-15T00:57:00;565.53;;;62.22;;
51566;SDS011;37657;53.182;5.638;2023-02-15T00:59:25;568.97;;;63.47;;
51566;SDS011;37657;53.182;5.638;2023-02-15T01:01:51;441.90;;;47.40;;
51566;SDS011;37657;53.182;5.638;2023-02-15T01:04:16;605.15;;;65.53;;
51566;SDS011;37657;53.182;5.638;2023-02-15T01:06:42;581.10;;;66.70;;
51566;SDS011;37657;53.182;5.638;2023-02-15T01:09:07;532.13;;;61.28;;
51566;SDS011;37657;53.182;5.638;2023-02-15T01:11:33;626.88;;;74.22;;
51566;SDS011;37657;53.182;5.638;2023-02-15T01:13:59;505.75;;;58.15;;
51566;SDS011;37657;53.182;5.638;2023-02-15T01:16:25;635.17;;;72.07;;
51566;SDS011;37657;53.182;5.638;2023-02-15T01:18:52;511.52;;;55.78;;
51566;SDS011;37657;53.182;5.638;2023-02-15T01:21:20;438.33;;;56.67;;
51566;SDS011;37657;53.182;5.638;2023-02-15T01:23:47;505.13;;;61.65;;
51566;SDS011;37657;53.182;5.638;2023-02-15T01:26:13;639.88;;;76.63;;
51566;SDS011;37657;53.182;5.638;2023-02-15T01:28:40;805.60;;;96.72;;
51566;SDS011;37657;53.182;5.638;2023-02-15T01:31:06;681.92;;;75.72;;
51566;SDS011;37657;53.182;5.638;2023-02-15T01:33:34;493.55;;;55.35;;
51566;SDS011;37657;53.182;5.638;2023-02-15T01:36:01;401.77;;;49.47;;
51566;SDS011;37657;53.182;5.638;2023-02-15T01:38:27;446.45;;;51.30;;
51566;SDS011;37657;53.182;5.638;2023-02-15T01:40:53;398.40;;;49.63;;
51566;SDS011;37657;53.182;5.638;2023-02-15T01:43:43;274.05;;;37.28;;
51566;SDS011;37657;53.182;5.638;2023-02-15T01:46:10;432.27;;;47.22;;
51566;SDS011;37657;53.182;5.638;2023-02-15T01:48:43;321.73;;;42.25;;
51566;SDS011;37657;53.182;5.638;2023-02-15T01:51:12;205.05;;;32.17;;
51566;SDS011;37657;53.182;5.638;2023-02-15T01:53:43;217.48;;;33.53;;
51566;SDS011;37657;53.182;5.638;2023-02-15T01:56:17;287.23;;;40.30;;
51566;SDS011;37657;53.182;5.638;2023-02-15T01:58:45;254.38;;;35.10;;
51566;SDS011;37657;53.182;5.638;2023-02-15T02:01:12;305.45;;;35.47;;
51566;SDS011;37657;53.182;5.638;2023-02-15T02:03:40;211.90;;;32.70;;
51566;SDS011;37657;53.182;5.638;2023-02-15T02:06:26;214.52;;;32.70;;
51566;SDS011;37657;53.182;5.638;2023-02-15T02:08:53;263.67;;;35.70;;
51566;SDS011;37657;53.182;5.638;2023-02-15T02:11:19;238.68;;;32.85;;
51566;SDS011;37657;53.182;5.638;2023-02-15T02:13:45;200.60;;;33.70;;
51566;SDS011;37657;53.182;5.638;2023-02-15T02:28:23;338.35;;;42.53;;
51566;SDS011;37657;53.182;5.638;2023-02-15T02:34:21;377.02;;;47.83;;
51566;SDS011;37657;53.182;5.638;2023-02-15T02:40:01;339.50;;;43.15;;
51566;SDS011;37657;53.182;5.638;2023-02-15T02:48:14;340.45;;;37.30;;
51566;SDS011;37657;53.182;5.638;2023-02-15T02:50:43;371.65;;;40.22;;
51566;SDS011;37657;53.182;5.638;2023-02-15T02:53:09;223.98;;;35.70;;
51566;SDS011;37657;53.182;5.638;2023-02-15T02:55:44;276.58;;;35.40;;
51566;SDS011;37657;53.182;5.638;2023-02-15T03:00:41;220.90;;;36.20;;
51566;SDS011;37657;53.182;5.638;2023-02-15T03:03:15;285.92;;;34.50;;
51566;SDS011;37657;53.182;5.638;2023-02-15T03:05:48;249.02;;;35.63;;
51566;SDS011;37657;53.182;5.638;2023-02-15T03:08:18;269.45;;;35.30;;
51566;SDS011;37657;53.182;5.638;2023-02-15T03:10:47;239.85;;;34.97;;
51566;SDS011;37657;53.182;5.638;2023-02-15T03:13:16;278.67;;;38.67;;
51566;SDS011;37657;53.182;5.638;2023-02-15T03:15:42;280.83;;;37.83;;
51566;SDS011;37657;53.182;5.638;2023-02-15T03:20:56;292.55;;;37.80;;
51566;SDS011;37657;53.182;5.638;2023-02-15T03:23:26;240.77;;;34.05;;
51566;SDS011;37657;53.182;5.638;2023-02-15T03:25:56;274.08;;;42.13;;
51566;SDS011;37657;53.182;5.638;2023-02-15T03:28:32;224.75;;;36.92;;
51566;SDS011;37657;53.182;5.638;2023-02-15T03:31:02;219.95;;;35.00;;
51566;SDS011;37657;53.182;5.638;2023-02-15T03:33:30;360.65;;;39.50;;
51566;SDS011;37657;53.182;5.638;2023-02-15T03:36:18;287.25;;;35.45;;
51566;SDS011;37657;53.182;5.638;2023-02-15T03:38:53;287.83;;;38.03;;
51566;SDS011;37657;53.182;5.638;2023-02-15T03:41:31;297.35;;;41.67;;
51566;SDS011;37657;53.182;5.638;2023-02-15T03:44:04;316.50;;;41.88;;
51566;SDS011;37657;53.182;5.638;2023-02-15T03:46:40;299.65;;;38.67;;
51566;SDS011;37657;53.182;5.638;2023-02-15T03:49:08;307.27;;;37.40;;
51566;SDS011;37657;53.182;5.638;2023-02-15T03:51:37;311.40;;;38.35;;
51566;SDS011;37657;53.182;5.638;2023-02-15T03:54:07;374.67;;;43.42;;
51566;SDS011;37657;53.182;5.638;2023-02-15T03:56:36;251.88;;;36.50;;
51566;SDS011;37657;53.182;5.638;2023-02-15T03:59:03;269.63;;;35.08;;
51566;SDS011;37657;53.182;5.638;2023-02-15T04:04:23;273.15;;;34.75;;
51566;SDS011;37657;53.182;5.638;2023-02-15T04:06:52;270.42;;;38.13;;
51566;SDS011;37657;53.182;5.638;2023-02-15T04:09:18;215.60;;;33.05;;
51566;SDS011;37657;53.182;5.638;2023-02-15T04:12:02;253.57;;;34.55;;
51566;SDS011;37657;53.182;5.638;2023-02-15T04:14:27;218.38;;;30.85;;
51566;SDS011;37657;53.182;5.638;2023-02-15T04:17:11;239.23;;;34.75;;
51566;SDS011;37657;53.182;5.638;2023-02-15T04:19:37;216.52;;;32.17;;
51566;SDS011;37657;53.182;5.638;2023-02-15T04:22:21;198.38;;;28.98;;
51566;SDS011;37657;53.182;5.638;2023-02-15T04:25:05;189.30;;;28.20;;
51566;SDS011;37657;53.182;5.638;2023-02-15T04:27:44;138.00;;;25.35;;
51566;SDS011;37657;53.182;5.638;2023-02-15T04:30:12;164.15;;;26.42;;
51566;SDS011;37657;53.182;5.638;2023-02-15T04:32:39;136.00;;;26.30;;
51566;SDS011;37657;53.182;5.638;2023-02-15T04:35:05;178.85;;;29.45;;
51566;SDS011;37657;53.182;5.638;2023-02-15T04:37:32;170.77;;;27.40;;
51566;SDS011;37657;53.182;5.638;2023-02-15T04:39:58;187.48;;;27.63;;
51566;SDS011;37657;53.182;5.638;2023-02-15T04:42:24;161.52;;;29.60;;
51566;SDS011;37657;53.182;5.638;2023-02-15T04:44:51;160.30;;;26.98;;
51566;SDS011;37657;53.182;5.638;2023-02-15T04:47:16;172.88;;;27.98;;
51566;SDS011;37657;53.182;5.638;2023-02-15T04:49:42;166.15;;;26.98;;
51566;SDS011;37657;53.182;5.638;2023-02-15T04:52:08;170.70;;;31.08;;
51566;SDS011;37657;53.182;5.638;2023-02-15T04:54:33;122.85;;;24.08;;
51566;SDS011;37657;53.182;5.638;2023-02-15T04:56:59;103.10;;;23.20;;
51566;SDS011;37657;53.182;5.638;2023-02-15T04:59:24;116.25;;;26.15;;
51566;SDS011;37657;53.182;5.638;2023-02-15T05:01:50;109.28;;;25.88;;
51566;SDS011;37657;53.182;5.638;2023-02-15T05:04:15;127.57;;;28.83;;
51566;SDS011;37657;53.182;5.638;2023-02-15T05:06:41;119.43;;;23.48;;
51566;SDS011;37657;53.182;5.638;2023-02-15T05:09:07;109.28;;;26.98;;
51566;SDS011;37657;53.182;5.638;2023-02-15T05:11:32;85.53;;;23.73;;
51566;SDS011;37657;53.182;5.638;2023-02-15T05:13:58;94.85;;;23.17;;
51566;SDS011;37657;53.182;5.638;2023-02-15T05:16:23;86.72;;;26.88;;
51566;SDS011;37657;53.182;5.638;2023-02-15T05:18:50;81.22;;;25.50;;
51566;SDS011;37657;53.182;5.638;2023-02-15T05:21:16;71.25;;;27.10;;
51566;SDS011;37657;53.182;5.638;2023-02-15T05:23:41;86.95;;;27.38;;
51566;SDS011;37657;53.182;5.638;2023-02-15T05:26:16;73.65;;;28.02;;
51566;SDS011;37657;53.182;5.638;2023-02-15T05:29:01;70.28;;;24.05;;
51566;SDS011;37657;53.182;5.638;2023-02-15T05:31:27;84.20;;;25.65;;
51566;SDS011;37657;53.182;5.638;2023-02-15T05:33:53;72.45;;;25.13;;
51566;SDS011;37657;53.182;5.638;2023-02-15T05:36:18;98.53;;;24.17;;
51566;SDS011;37657;53.182;5.638;2023-02-15T05:38:44;113.80;;;27.60;;
51566;SDS011;37657;53.182;5.638;2023-02-15T05:41:10;104.72;;;30.23;;
51566;SDS011;37657;53.182;5.638;2023-02-15T05:43:36;106.28;;;24.98;;
51566;SDS011;37657;53.182;5.638;2023-02-15T05:46:03;87.80;;;26.20;;
51566;SDS011;37657;53.182;5.638;2023-02-15T05:48:29;98.80;;;29.58;;
51566;SDS011;37657;53.182;5.638;2023-02-15T05:51:06;105.78;;;26.92;;
51566;SDS011;37657;53.182;5.638;2023-02-15T05:53:34;117.50;;;28.20;;
51566;SDS011;37657;53.182;5.638;2023-02-15T05:56:02;160.07;;;34.28;;
51566;SDS011;37657;53.182;5.638;2023-02-15T05:58:29;106.63;;;27.33;;
51566;SDS011;37657;53.182;5.638;2023-02-15T06:00:56;130.75;;;29.27;;
51566;SDS011;37657;53.182;5.638;2023-02-15T06:03:22;110.30;;;27.92;;
51566;SDS011;37657;53.182;5.638;2023-02-15T06:05:48;118.10;;;30.10;;
51566;SDS011;37657;53.182;5.638;2023-02-15T06:08:14;147.80;;;27.20;;
51566;SDS011;37657;53.182;5.638;2023-02-15T06:10:40;110.07;;;28.63;;
51566;SDS011;37657;53.182;5.638;2023-02-15T06:13:06;141.68;;;30.65;;
51566;SDS011;37657;53.182;5.638;2023-02-15T06:15:31;153.23;;;32.63;;
51566;SDS011;37657;53.182;5.638;2023-02-15T06:17:57;154.95;;;30.45;;
51566;SDS011;37657;53.182;5.638;2023-02-15T06:20:23;107.65;;;27.33;;
51566;SDS011;37657;53.182;5.638;2023-02-15T06:22:48;135.00;;;30.08;;
51566;SDS011;37657;53.182;5.638;2023-02-15T06:25:14;75.28;;;25.60;;
51566;SDS011;37657;53.182;5.638;2023-02-15T06:27:42;76.82;;;27.55;;
51566;SDS011;37657;53.182;5.638;2023-02-15T06:30:08;80.93;;;25.42;;
51566;SDS011;37657;53.182;5.638;2023-02-15T06:32:35;94.10;;;32.85;;
51566;SDS011;37657;53.182;5.638;2023-02-15T06:35:00;90.80;;;29.70;;
51566;SDS011;37657;53.182;5.638;2023-02-15T06:37:26;66.57;;;25.77;;
51566;SDS011;37657;53.182;5.638;2023-02-15T06:39:52;98.28;;;28.50;;
51566;SDS011;37657;53.182;5.638;2023-02-15T06:42:17;100.43;;;30.52;;
51566;SDS011;37657;53.182;5.638;2023-02-15T06:44:44;95.70;;;32.88;;
51566;SDS011;37657;53.182;5.638;2023-02-15T06:47:10;123.40;;;34.25;;
51566;SDS011;37657;53.182;5.638;2023-02-15T06:49:36;113.57;;;32.70;;
51566;SDS011;37657;53.182;5.638;2023-02-15T06:52:01;102.45;;;35.63;;
51566;SDS011;37657;53.182;5.638;2023-02-15T06:54:27;69.90;;;28.50;;
51566;SDS011;37657;53.182;5.638;2023-02-15T06:56:53;132.00;;;33.42;;
51566;SDS011;37657;53.182;5.638;2023-02-15T06:59:18;72.28;;;29.35;;
51566;SDS011;37657;53.182;5.638;2023-02-15T07:01:44;70.10;;;32.47;;
51566;SDS011;37657;53.182;5.638;2023-02-15T07:04:09;132.98;;;34.05;;
51566;SDS011;37657;53.182;5.638;2023-02-15T07:06:35;72.90;;;29.20;;
51566;SDS011;37657;53.182;5.638;2023-02-15T07:09:00;93.55;;;28.63;;
51566;SDS011;37657;53.182;5.638;2023-02-15T07:11:27;147.02;;;40.05;;
51566;SDS011;37657;53.182;5.638;2023-02-15T07:14:11;91.22;;;34.17;;
51566;SDS011;37657;53.182;5.638;2023-02-15T07:16:37;91.15;;;32.63;;
51566;SDS011;37657;53.182;5.638;2023-02-15T07:19:03;102.15;;;31.30;;
51566;SDS011;37657;53.182;5.638;2023-02-15T07:21:28;74.38;;;33.45;;
51566;SDS011;37657;53.182;5.638;2023-02-15T07:23:57;72.25;;;27.20;;
51566;SDS011;37657;53.182;5.638;2023-02-15T07:26:23;122.47;;;32.22;;
51566;SDS011;37657;53.182;5.638;2023-02-15T07:28:49;86.28;;;29.75;;
51566;SDS011;37657;53.182;5.638;2023-02-15T07:31:14;79.70;;;31.58;;
51566;SDS011;37657;53.182;5.638;2023-02-15T07:33:40;105.25;;;34.58;;
51566;SDS011;37657;53.182;5.638;2023-02-15T07:36:06;75.95;;;34.47;;
51566;SDS011;37657;53.182;5.638;2023-02-15T07:38:36;139.32;;;34.58;;
51566;SDS011;37657;53.182;5.638;2023-02-15T07:41:03;84.80;;;33.53;;
51566;SDS011;37657;53.182;5.638;2023-02-15T07:43:32;101.60;;;31.73;;
51566;SDS011;37657;53.182;5.638;2023-02-15T07:45:59;163.88;;;39.13;;
51566;SDS011;37657;53.182;5.638;2023-02-15T07:48:25;101.00;;;32.05;;
51566;SDS011;37657;53.182;5.638;2023-02-15T07:50:51;119.10;;;38.22;;
51566;SDS011;37657;53.182;5.638;2023-02-15T07:53:17;97.18;;;33.28;;
51566;SDS011;37657;53.182;5.638;2023-02-15T07:55:43;88.78;;;31.73;;
51566;SDS011;37657;53.182;5.638;2023-02-15T07:58:08;73.45;;;30.80;;
51566;SDS011;37657;53.182;5.638;2023-02-15T08:00:34;57.92;;;28.55;;
51566;SDS011;37657;53.182;5.638;2023-02-15T08:03:19;39.67;;;28.85;;
51566;SDS011;37657;53.182;5.638;2023-02-15T08:05:49;54.60;;;31.10;;
51566;SDS011;37657;53.182;5.638;2023-02-15T08:08:14;52.13;;;30.65;;
51566;SDS011;37657;53.182;5.638;2023-02-15T08:10:59;67.25;;;34.65;;
51566;SDS011;37657;53.182;5.638;2023-02-15T08:13:56;66.32;;;33.67;;
51566;SDS011;37657;53.182;5.638;2023-02-15T08:16:37;57.30;;;33.80;;
51566;SDS011;37657;53.182;5.638;2023-02-15T08:21:47;49.63;;;31.63;;
51566;SDS011;37657;53.182;5.638;2023-02-15T08:24:16;42.90;;;31.70;;
51566;SDS011;37657;53.182;5.638;2023-02-15T08:26:43;33.00;;;29.73;;
51566;SDS011;37657;53.182;5.638;2023-02-15T08:29:11;44.92;;;27.80;;
51566;SDS011;37657;53.182;5.638;2023-02-15T08:31:38;35.20;;;30.98;;
51566;SDS011;37657;53.182;5.638;2023-02-15T08:34:06;32.40;;;29.38;;
51566;SDS011;37657;53.182;5.638;2023-02-15T08:36:32;33.28;;;30.00;;
51566;SDS011;37657;53.182;5.638;2023-02-15T08:38:58;40.55;;;32.25;;
51566;SDS011;37657;53.182;5.638;2023-02-15T08:41:27;33.67;;;30.20;;
51566;SDS011;37657;53.182;5.638;2023-02-15T08:43:57;34.55;;;31.17;;
51566;SDS011;37657;53.182;5.638;2023-02-15T08:46:26;37.40;;;33.65;;
51566;SDS011;37657;53.182;5.638;2023-02-15T08:48:53;34.00;;;30.73;;
51566;SDS011;37657;53.182;5.638;2023-02-15T08:51:23;34.28;;;31.00;;
51566;SDS011;37657;53.182;5.638;2023-02-15T08:53:51;35.22;;;31.98;;
51566;SDS011;37657;53.182;5.638;2023-02-15T08:56:21;37.72;;;33.92;;
51566;SDS011;37657;53.182;5.638;2023-02-15T08:58:48;33.60;;;30.35;;
51566;SDS011;37657;53.182;5.638;2023-02-15T09:01:15;39.35;;;35.60;;
51566;SDS011;37657;53.182;5.638;2023-02-15T09:03:43;35.58;;;31.90;;
51566;SDS011;37657;53.182;5.638;2023-02-15T09:06:10;38.92;;;34.50;;
51566;SDS011;37657;53.182;5.638;2023-02-15T09:08:36;41.65;;;35.85;;
51566;SDS011;37657;53.182;5.638;2023-02-15T09:11:06;43.88;;;35.55;;
51566;SDS011;37657;53.182;5.638;2023-02-15T09:13:33;39.45;;;35.58;;
51566;SDS011;37657;53.182;5.638;2023-02-15T09:16:00;39.80;;;35.85;;
51566;SDS011;37657;53.182;5.638;2023-02-15T09:18:29;41.50;;;36.63;;
51566;SDS011;37657;53.182;5.638;2023-02-15T09:20:56;40.90;;;36.78;;
51566;SDS011;37657;53.182;5.638;2023-02-15T09:23:21;43.05;;;36.78;;
51566;SDS011;37657;53.182;5.638;2023-02-15T09:25:49;43.22;;;38.97;;
51566;SDS011;37657;53.182;5.638;2023-02-15T09:28:15;46.25;;;36.45;;
51566;SDS011;37657;53.182;5.638;2023-02-15T09:30:40;48.05;;;41.03;;
51566;SDS011;37657;53.182;5.638;2023-02-15T09:33:06;48.38;;;42.88;;
51566;SDS011;37657;53.182;5.638;2023-02-15T09:35:32;50.05;;;41.85;;
51566;SDS011;37657;53.182;5.638;2023-02-15T09:37:57;46.65;;;41.45;;
51566;SDS011;37657;53.182;5.638;2023-02-15T09:40:23;43.05;;;38.80;;
51566;SDS011;37657;53.182;5.638;2023-02-15T09:42:59;43.45;;;38.97;;
51566;SDS011;37657;53.182;5.638;2023-02-15T09:45:34;41.42;;;37.08;;
51566;SDS011;37657;53.182;5.638;2023-02-15T09:48:21;44.63;;;40.35;;
51566;SDS011;37657;53.182;5.638;2023-02-15T09:56:39;47.33;;;42.17;;
51566;SDS011;37657;53.182;5.638;2023-02-15T09:59:30;43.67;;;39.00;;
51566;SDS011;37657;53.182;5.638;2023-02-15T10:02:23;46.55;;;41.55;;
51566;SDS011;37657;53.182;5.638;2023-02-15T10:13:53;57.47;;;47.33;;
51566;SDS011;37657;53.182;5.638;2023-02-15T10:21:33;53.08;;;41.25;;
51566;SDS011;37657;53.182;5.638;2023-02-15T10:24:23;55.90;;;45.72;;
51566;SDS011;37657;53.182;5.638;2023-02-15T10:27:07;59.10;;;46.42;;
51566;SDS011;37657;53.182;5.638;2023-02-15T10:29:38;54.13;;;43.45;;
51566;SDS011;37657;53.182;5.638;2023-02-15T10:40:33;53.87;;;39.30;;
51566;SDS011;37657;53.182;5.638;2023-02-15T10:43:09;50.65;;;40.03;;
51566;SDS011;37657;53.182;5.638;2023-02-15T11:20:59;62.03;;;42.55;;
51566;SDS011;37657;53.182;5.638;2023-02-15T11:23:26;53.63;;;40.80;;
51566;SDS011;37657;53.182;5.638;2023-02-15T11:25:57;53.65;;;40.70;;
51566;SDS011;37657;53.182;5.638;2023-02-15T11:28:33;50.38;;;40.20;;
51566;SDS011;37657;53.182;5.638;2023-02-15T11:31:15;52.65;;;43.25;;
51566;SDS011;37657;53.182;5.638;2023-02-15T11:33:45;46.50;;;41.60;;
51566;SDS011;37657;53.182;5.638;2023-02-15T11:36:24;54.80;;;43.13;;
51566;SDS011;37657;53.182;5.638;2023-02-15T11:39:01;58.00;;;45.40;;
51566;SDS011;37657;53.182;5.638;2023-02-15T11:41:52;45.72;;;40.95;;
51566;SDS011;37657;53.182;5.638;2023-02-15T11:44:24;46.80;;;41.95;;
51566;SDS011;37657;53.182;5.638;2023-02-15T11:46:59;54.60;;;47.75;;
51566;SDS011;37657;53.182;5.638;2023-02-15T11:51:55;69.97;;;48.80;;
51566;SDS011;37657;53.182;5.638;2023-02-15T11:54:24;53.03;;;46.45;;
51566;SDS011;37657;53.182;5.638;2023-02-15T11:56:56;64.35;;;48.50;;
51566;SDS011;37657;53.182;5.638;2023-02-15T11:59:40;51.25;;;45.67;;
51566;SDS011;37657;53.182;5.638;2023-02-15T12:02:17;48.63;;;42.00;;
51566;SDS011;37657;53.182;5.638;2023-02-15T12:04:47;68.65;;;49.08;;
51566;SDS011;37657;53.182;5.638;2023-02-15T12:07:19;51.95;;;43.58;;
51566;SDS011;37657;53.182;5.638;2023-02-15T12:09:59;60.40;;;48.77;;
51566;SDS011;37657;53.182;5.638;2023-02-15T12:12:39;49.33;;;42.30;;
51566;SDS011;37657;53.182;5.638;2023-02-15T12:15:08;50.13;;;44.13;;
51566;SDS011;37657;53.182;5.638;2023-02-15T12:17:47;52.20;;;43.10;;
51566;SDS011;37657;53.182;5.638;2023-02-15T12:23:25;51.55;;;42.50;;
51566;SDS011;37657;53.182;5.638;2023-02-15T12:25:41;59.28;;;45.85;;
51566;SDS011;37657;53.182;5.638;2023-02-15T12:28:23;85.70;;;48.03;;
51566;SDS011;37657;53.182;5.638;2023-02-15T12:30:49;53.25;;;42.17;;
51566;SDS011;37657;53.182;5.638;2023-02-15T12:36:18;54.47;;;46.50;;
51566;SDS011;37657;53.182;5.638;2023-02-15T12:39:02;57.30;;;46.35;;
51566;SDS011;37657;53.182;5.638;2023-02-15T12:41:30;60.22;;;44.45;;
51566;SDS011;37657;53.182;5.638;2023-02-15T12:44:06;55.70;;;44.47;;
51566;SDS011;37657;53.182;5.638;2023-02-15T12:46:40;47.33;;;42.47;;
51566;SDS011;37657;53.182;5.638;2023-02-15T12:51:49;51.17;;;42.47;;
51566;SDS011;37657;53.182;5.638;2023-02-15T13:04:50;53.22;;;43.40;;
51566;SDS011;37657;53.182;5.638;2023-02-15T13:07:17;51.35;;;42.40;;
51566;SDS011;37657;53.182;5.638;2023-02-15T13:09:43;50.88;;;42.17;;
51566;SDS011;37657;53.182;5.638;2023-02-15T13:12:14;58.60;;;44.80;;
51566;SDS011;37657;53.182;5.638;2023-02-15T13:14:44;62.47;;;45.25;;
51566;SDS011;37657;53.182;5.638;2023-02-15T13:17:12;56.70;;;44.47;;
51566;SDS011;37657;53.182;5.638;2023-02-15T13:19:44;47.25;;;42.53;;
51566;SDS011;37657;53.182;5.638;2023-02-15T13:22:14;49.60;;;44.25;;
51566;SDS011;37657;53.182;5.638;2023-02-15T13:24:47;49.90;;;39.22;;
51566;SDS011;37657;53.182;5.638;2023-02-15T13:27:21;45.75;;;40.90;;
51566;SDS011;37657;53.182;5.638;2023-02-15T13:29:51;45.40;;;40.50;;
51566;SDS011;37657;53.182;5.638;2023-02-15T13:32:24;59.45;;;44.35;;
51566;SDS011;37657;53.182;5.638;2023-02-15T13:34:57;46.45;;;41.55;;
51566;SDS011;37657;53.182;5.638;2023-02-15T13:40:03;65.20;;;44.95;;
51566;SDS011;37657;53.182;5.638;2023-02-15T13:45:46;46.28;;;39.88;;
51566;SDS011;37657;53.182;5.638;2023-02-15T14:03:27;48.53;;;43.42;;
51566;SDS011;37657;53.182;5.638;2023-02-15T14:09:21;57.42;;;43.17;;
51566;SDS011;37657;53.182;5.638;2023-02-15T14:12:23;52.03;;;41.78;;
51566;SDS011;37657;53.182;5.638;2023-02-15T14:15:18;47.03;;;41.17;;
51566;SDS011;37657;53.182;5.638;2023-02-15T14:17:56;49.33;;;43.17;;
51566;SDS011;37657;53.182;5.638;2023-02-15T14:20:33;62.03;;;48.25;;
51566;SDS011;37657;53.182;5.638;2023-02-15T14:23:22;56.75;;;46.08;;
51566;SDS011;37657;53.182;5.638;2023-02-15T14:26:16;56.40;;;45.33;;
51566;SDS011;37657;53.182;5.638;2023-02-15T14:31:49;49.88;;;42.08;;
51566;SDS011;37657;53.182;5.638;2023-02-15T14:34:23;46.15;;;39.05;;
51566;SDS011;37657;53.182;5.638;2023-02-15T14:36:52;53.40;;;40.65;;
51566;SDS011;37657;53.182;5.638;2023-02-15T14:39:25;54.58;;;43.17;;
51566;SDS011;37657;53.182;5.638;2023-02-15T14:45:21;58.75;;;44.80;;
51566;SDS011;37657;53.182;5.638;2023-02-15T14:50:38;51.55;;;44.72;;
51566;SDS011;37657;53.182;5.638;2023-02-15T14:58:54;47.45;;;42.28;;
51566;SDS011;37657;53.182;5.638;2023-02-15T15:01:40;51.17;;;45.55;;
51566;SDS011;37657;53.182;5.638;2023-02-15T15:04:14;59.10;;;45.00;;
51566;SDS011;37657;53.182;5.638;2023-02-15T15:09:37;49.05;;;43.95;;
51566;SDS011;37657;53.182;5.638;2023-02-15T15:12:14;49.35;;;42.70;;
51566;SDS011;37657;53.182;5.638;2023-02-15T15:14:46;51.08;;;43.72;;
51566;SDS011;37657;53.182;5.638;2023-02-15T15:22:41;52.85;;;43.60;;
51566;SDS011;37657;53.182;5.638;2023-02-15T15:25:12;58.97;;;45.50;;
51566;SDS011;37657;53.182;5.638;2023-02-15T15:28:02;53.53;;;47.28;;
51566;SDS011;37657;53.182;5.638;2023-02-15T15:40:58;50.53;;;43.42;;
51566;SDS011;37657;53.182;5.638;2023-02-15T15:49:37;55.38;;;48.60;;
51566;SDS011;37657;53.182;5.638;2023-02-15T15:52:17;54.75;;;47.88;;
51566;SDS011;37657;53.182;5.638;2023-02-15T15:54:45;51.03;;;43.63;;
51566;SDS011;37657;53.182;5.638;2023-02-15T15:57:20;57.67;;;45.72;;
51566;SDS011;37657;53.182;5.638;2023-02-15T15:59:58;58.72;;;47.35;;
51566;SDS011;37657;53.182;5.638;2023-02-15T16:02:24;60.40;;;47.30;;
51566;SDS011;37657;53.182;5.638;2023-02-15T16:04:51;57.28;;;45.10;;
51566;SDS011;37657;53.182;5.638;2023-02-15T16:09:55;48.67;;;43.28;;
51566;SDS011;37657;53.182;5.638;2023-02-15T16:12:26;55.70;;;47.20;;
51566;SDS011;37657;53.182;5.638;2023-02-15T16:14:53;49.10;;;44.10;;
51566;SDS011;37657;53.182;5.638;2023-02-15T16:17:22;55.38;;;46.50;;
51566;SDS011;37657;53.182;5.638;2023-02-15T16:19:50;51.25;;;43.83;;
51566;SDS011;37657;53.182;5.638;2023-02-15T16:22:24;61.85;;;49.80;;
51566;SDS011;37657;53.182;5.638;2023-02-15T16:24:58;49.95;;;44.53;;
51566;SDS011;37657;53.182;5.638;2023-02-15T16:27:47;55.27;;;49.40;;
51566;SDS011;37657;53.182;5.638;2023-02-15T16:33:08;64.88;;;54.80;;
51566;SDS011;37657;53.182;5.638;2023-02-15T16:35:36;71.30;;;52.15;;
51566;SDS011;37657;53.182;5.638;2023-02-15T16:38:04;62.63;;;50.47;;
51566;SDS011;37657;53.182;5.638;2023-02-15T16:43:16;56.60;;;49.08;;
51566;SDS011;37657;53.182;5.638;2023-02-15T16:45:47;58.75;;;51.38;;
51566;SDS011;37657;53.182;5.638;2023-02-15T16:48:14;65.03;;;52.35;;
51566;SDS011;37657;53.182;5.638;2023-02-15T16:50:46;55.25;;;49.47;;
51566;SDS011;37657;53.182;5.638;2023-02-15T16:53:17;56.35;;;50.40;;
51566;SDS011;37657;53.182;5.638;2023-02-15T16:55:47;66.30;;;56.78;;
51566;SDS011;37657;53.182;5.638;2023-02-15T16:58:39;60.25;;;54.28;;
51566;SDS011;37657;53.182;5.638;2023-02-15T17:01:08;59.60;;;53.45;;
51566;SDS011;37657;53.182;5.638;2023-02-15T17:03:37;65.30;;;52.50;;
51566;SDS011;37657;53.182;5.638;2023-02-15T17:06:03;59.33;;;52.88;;
51566;SDS011;37657;53.182;5.638;2023-02-15T17:08:51;61.03;;;50.17;;
51566;SDS011;37657;53.182;5.638;2023-02-15T17:11:18;62.80;;;55.25;;
51566;SDS011;37657;53.182;5.638;2023-02-15T17:19:03;60.22;;;51.17;;
51566;SDS011;37657;53.182;5.638;2023-02-15T17:21:46;78.00;;;61.67;;
51566;SDS011;37657;53.182;5.638;2023-02-15T17:24:34;68.93;;;56.40;;
51566;SDS011;37657;53.182;5.638;2023-02-15T17:27:01;68.23;;;58.57;;
51566;SDS011;37657;53.182;5.638;2023-02-15T17:29:36;69.70;;;57.78;;
51566;SDS011;37657;53.182;5.638;2023-02-15T17:32:05;57.38;;;51.47;;
51566;SDS011;37657;53.182;5.638;2023-02-15T17:34:56;60.92;;;54.45;;
51566;SDS011;37657;53.182;5.638;2023-02-15T17:40:07;67.10;;;59.85;;
51566;SDS011;37657;53.182;5.638;2023-02-15T17:42:47;71.45;;;61.85;;
51566;SDS011;37657;53.182;5.638;2023-02-15T17:45:13;64.72;;;56.80;;
51566;SDS011;37657;53.182;5.638;2023-02-15T17:47:39;68.05;;;61.30;;
51566;SDS011;37657;53.182;5.638;2023-02-15T17:50:05;69.07;;;61.17;;
51566;SDS011;37657;53.182;5.638;2023-02-15T17:52:32;71.28;;;62.00;;
51566;SDS011;37657;53.182;5.638;2023-02-15T17:54:57;67.47;;;60.53;;